sensor_id;sensor_type;location;lat;lon;timestamp;pressure;altitude;pressure_sealevel;temperature;humidity
9672;BME280;4874;43.568;27.824;2023-07-30T00:02:18;98675.63;;;22.04;100.00
9672;BME280;4874;43.568;27.824;2023-07-30T00:04:46;98689.78;;;21.99;100.00
9672;BME280;4874;43.568;27.824;2023-07-30T00:07:13;98689.78;;;21.99;100.00
9672;BME280;4874;43.568;27.824;2023-07-30T00:09:40;98680.34;;;21.90;100.00
9672;BME280;4874;43.568;27.824;2023-07-30T00:12:07;98681.75;;;21.68;100.00
9672;BME280;4874;43.568;27.824;2023-07-30T00:14:34;98682.41;;;21.64;100.00
9672;BME280;4874;43.568;27.824;2023-07-30T00:17:02;98678.69;;;21.65;100.00
9672;BME280;4874;43.568;27.824;2023-07-30T00:19:29;98670.66;;;21.27;100.00
9672;BME280;4874;43.568;27.824;2023-07-30T00:21:55;98687.38;;;21.18;100.00
9672;BME280;4874;43.568;27.824;2023-07-30T00:24:22;98668.31;;;21.13;100.00
9672;BME280;4874;43.568;27.824;2023-07-30T00:26:50;98653.59;;;21.58;100.00
9672;BME280;4874;43.568;27.824;2023-07-30T00:29:16;98678.88;;;21.14;100.00
9672;BME280;4874;43.568;27.824;2023-07-30T00:31:43;98644.50;;;20.96;100.00
9672;BME280;4874;43.568;27.824;2023-07-30T00:34:10;98653.31;;;21.41;100.00
9672;BME280;4874;43.568;27.824;2023-07-30T00:36:37;98666.22;;;21.64;100.00
9672;BME280;4874;43.568;27.824;2023-07-30T00:39:03;98668.94;;;21.88;100.00
9672;BME280;4874;43.568;27.824;2023-07-30T00:41:30;98636.56;;;21.82;100.00
9672;BME280;4874;43.568;27.824;2023-07-30T00:43:57;98657.72;;;21.85;100.00
9672;BME280;4874;43.568;27.824;2023-07-30T00:46:24;98671.75;;;21.51;100.00
9672;BME280;4874;43.568;27.824;2023-07-30T00:48:51;98661.53;;;21.28;100.00
9672;BME280;4874;43.568;27.824;2023-07-30T00:51:19;98633.69;;;21.28;100.00
9672;BME280;4874;43.568;27.824;2023-07-30T00:53:46;98669.91;;;21.69;100.00
9672;BME280;4874;43.568;27.824;2023-07-30T00:56:13;98678.91;;;21.88;100.00
9672;BME280;4874;43.568;27.824;2023-07-30T00:58:40;98669.75;;;21.40;100.00
9672;BME280;4874;43.568;27.824;2023-07-30T01:01:07;98666.22;;;21.64;100.00
9672;BME280;4874;43.568;27.824;2023-07-30T01:03:34;98653.34;;;21.84;100.00
9672;BME280;4874;43.568;27.824;2023-07-30T01:06:01;98662.38;;;21.78;100.00
9672;BME280;4874;43.568;27.824;2023-07-30T01:08:28;98674.72;;;21.92;100.00
9672;BME280;4874;43.568;27.824;2023-07-30T01:10:56;98631.88;;;21.46;100.00
9672;BME280;4874;43.568;27.824;2023-07-30T01:13:24;98645.31;;;21.77;100.00
9672;BME280;4874;43.568;27.824;2023-07-30T01:15:51;98667.28;;;21.63;100.00
9672;BME280;4874;43.568;27.824;2023-07-30T01:18:18;98661.72;;;21.58;100.00
9672;BME280;4874;43.568;27.824;2023-07-30T01:20:44;98651.66;;;21.65;100.00
9672;BME280;4874;43.568;27.824;2023-07-30T01:23:11;98678.63;;;21.71;100.00
9672;BME280;4874;43.568;27.824;2023-07-30T01:25:39;98666.44;;;21.87;100.00
9672;BME280;4874;43.568;27.824;2023-07-30T01:28:10;98659.00;;;21.58;100.00
9672;BME280;4874;43.568;27.824;2023-07-30T01:30:42;98633.34;;;20.86;100.00
9672;BME280;4874;43.568;27.824;2023-07-30T01:33:11;98659.44;;;21.30;100.00
9672;BME280;4874;43.568;27.824;2023-07-30T01:35:40;98656.88;;;21.60;100.00
9672;BME280;4874;43.568;27.824;2023-07-30T01:38:08;98645.34;;;21.28;100.00
9672;BME280;4874;43.568;27.824;2023-07-30T01:40:36;98651.88;;;20.76;100.00
9672;BME280;4874;43.568;27.824;2023-07-30T01:43:03;98661.47;;;21.35;100.00
9672;BME280;4874;43.568;27.824;2023-07-30T01:45:30;98660.25;;;21.31;100.00
9672;BME280;4874;43.568;27.824;2023-07-30T01:47:56;98652.75;;;21.33;100.00
9672;BME280;4874;43.568;27.824;2023-07-30T01:50:23;98618.56;;;21.27;100.00
9672;BME280;4874;43.568;27.824;2023-07-30T01:52:50;98653.78;;;21.56;100.00
9672;BME280;4874;43.568;27.824;2023-07-30T01:55:17;98634.13;;;21.00;100.00
9672;BME280;4874;43.568;27.824;2023-07-30T01:57:43;98659.38;;;21.37;100.00
9672;BME280;4874;43.568;27.824;2023-07-30T02:00:11;98661.56;;;21.53;100.00
9672;BME280;4874;43.568;27.824;2023-07-30T02:02:38;98620.66;;;21.25;100.00
9672;BME280;4874;43.568;27.824;2023-07-30T02:05:05;98656.16;;;21.71;100.00
9672;BME280;4874;43.568;27.824;2023-07-30T02:07:31;98661.97;;;21.74;100.00
9672;BME280;4874;43.568;27.824;2023-07-30T02:09:58;98659.72;;;21.71;100.00
9672;BME280;4874;43.568;27.824;2023-07-30T02:12:25;98663.59;;;21.75;100.00
9672;BME280;4874;43.568;27.824;2023-07-30T02:14:52;98675.88;;;21.78;100.00
9672;BME280;4874;43.568;27.824;2023-07-30T02:17:18;98662.19;;;21.73;100.00
9672;BME280;4874;43.568;27.824;2023-07-30T02:19:45;98654.91;;;21.24;100.00
9672;BME280;4874;43.568;27.824;2023-07-30T02:22:12;98619.16;;;20.97;100.00
9672;BME280;4874;43.568;27.824;2023-07-30T02:24:39;98670.34;;;21.42;100.00
9672;BME280;4874;43.568;27.824;2023-07-30T02:27:05;98676.22;;;21.08;100.00
9672;BME280;4874;43.568;27.824;2023-07-30T02:29:32;98674.81;;;21.30;100.00
9672;BME280;4874;43.568;27.824;2023-07-30T02:31:59;98654.31;;;20.84;100.00
9672;BME280;4874;43.568;27.824;2023-07-30T02:34:26;98673.09;;;20.73;100.00
9672;BME280;4874;43.568;27.824;2023-07-30T02:36:53;98674.09;;;21.16;100.00
9672;BME280;4874;43.568;27.824;2023-07-30T02:39:20;98676.13;;;21.21;100.00
9672;BME280;4874;43.568;27.824;2023-07-30T02:41:47;98676.44;;;21.06;100.00
9672;BME280;4874;43.568;27.824;2023-07-30T02:44:14;98685.50;;;20.80;100.00
9672;BME280;4874;43.568;27.824;2023-07-30T02:46:40;98676.66;;;21.05;100.00
9672;BME280;4874;43.568;27.824;2023-07-30T02:49:07;98635.59;;;20.89;100.00
9672;BME280;4874;43.568;27.824;2023-07-30T02:51:35;98683.59;;;20.87;100.00
9672;BME280;4874;43.568;27.824;2023-07-30T02:54:07;98680.44;;;20.53;100.00
9672;BME280;4874;43.568;27.824;2023-07-30T02:56:34;98671.13;;;20.86;100.00
9672;BME280;4874;43.568;27.824;2023-07-30T02:59:01;98672.69;;;21.07;100.00
9672;BME280;4874;43.568;27.824;2023-07-30T03:01:28;98682.28;;;20.59;100.00
9672;BME280;4874;43.568;27.824;2023-07-30T03:03:54;98684.16;;;20.52;100.00
9672;BME280;4874;43.568;27.824;2023-07-30T03:06:21;98657.16;;;20.21;100.00
9672;BME280;4874;43.568;27.824;2023-07-30T03:08:48;98685.28;;;20.38;100.00
9672;BME280;4874;43.568;27.824;2023-07-30T03:11:15;98647.88;;;19.90;100.00
9672;BME280;4874;43.568;27.824;2023-07-30T03:13:42;98692.38;;;20.26;100.00
9672;BME280;4874;43.568;27.824;2023-07-30T03:16:08;98681.41;;;20.08;100.00
9672;BME280;4874;43.568;27.824;2023-07-30T03:18:35;98685.44;;;20.49;100.00
9672;BME280;4874;43.568;27.824;2023-07-30T03:21:02;98678.94;;;21.08;100.00
9672;BME280;4874;43.568;27.824;2023-07-30T03:23:30;98678.41;;;21.48;100.00
9672;BME280;4874;43.568;27.824;2023-07-30T03:25:57;98687.69;;;21.77;100.00
9672;BME280;4874;43.568;27.824;2023-07-30T03:28:24;98692.06;;;21.29;100.00
9672;BME280;4874;43.568;27.824;2023-07-30T03:30:51;98671.47;;;20.96;100.00
9672;BME280;4874;43.568;27.824;2023-07-30T03:33:18;98686.72;;;21.47;100.00
9672;BME280;4874;43.568;27.824;2023-07-30T03:35:45;98693.94;;;21.28;100.00
9672;BME280;4874;43.568;27.824;2023-07-30T03:38:12;98678.03;;;20.76;100.00
9672;BME280;4874;43.568;27.824;2023-07-30T03:40:38;98693.44;;;20.69;100.00
9672;BME280;4874;43.568;27.824;2023-07-30T03:43:05;98629.84;;;20.48;100.00
9672;BME280;4874;43.568;27.824;2023-07-30T03:45:32;98687.47;;;21.05;100.00
9672;BME280;4874;43.568;27.824;2023-07-30T03:47:59;98688.19;;;20.80;100.00
9672;BME280;4874;43.568;27.824;2023-07-30T03:50:26;98689.34;;;20.60;100.00
9672;BME280;4874;43.568;27.824;2023-07-30T03:52:53;98689.16;;;20.48;100.00
9672;BME280;4874;43.568;27.824;2023-07-30T03:55:19;98694.34;;;21.00;100.00
9672;BME280;4874;43.568;27.824;2023-07-30T03:57:46;98686.22;;;20.63;100.00
9672;BME280;4874;43.568;27.824;2023-07-30T04:00:13;98703.47;;;20.93;100.00
9672;BME280;4874;43.568;27.824;2023-07-30T04:02:40;98692.84;;;20.60;100.00
9672;BME280;4874;43.568;27.824;2023-07-30T04:05:07;98690.41;;;21.28;100.00
9672;BME280;4874;43.568;27.824;2023-07-30T04:07:33;98688.38;;;21.48;100.00
9672;BME280;4874;43.568;27.824;2023-07-30T04:10:00;98683.19;;;21.71;100.00
9672;BME280;4874;43.568;27.824;2023-07-30T04:12:27;98687.81;;;21.64;100.00
9672;BME280;4874;43.568;27.824;2023-07-30T04:14:54;98686.72;;;21.96;100.00
9672;BME280;4874;43.568;27.824;2023-07-30T04:17:20;98677.56;;;21.97;100.00
9672;BME280;4874;43.568;27.824;2023-07-30T04:19:47;98686.44;;;22.04;100.00
9672;BME280;4874;43.568;27.824;2023-07-30T04:22:14;98687.94;;;22.00;100.00
9672;BME280;4874;43.568;27.824;2023-07-30T04:24:41;98695.16;;;22.60;100.00
9672;BME280;4874;43.568;27.824;2023-07-30T04:27:08;98652.63;;;22.67;100.00
9672;BME280;4874;43.568;27.824;2023-07-30T04:29:35;98685.97;;;22.79;100.00
9672;BME280;4874;43.568;27.824;2023-07-30T04:32:01;98695.47;;;23.00;100.00
9672;BME280;4874;43.568;27.824;2023-07-30T04:34:28;98694.84;;;22.86;100.00
9672;BME280;4874;43.568;27.824;2023-07-30T04:36:55;98696.94;;;22.66;100.00
9672;BME280;4874;43.568;27.824;2023-07-30T04:39:22;98696.13;;;22.95;100.00
9672;BME280;4874;43.568;27.824;2023-07-30T04:41:48;98701.97;;;22.81;100.00
9672;BME280;4874;43.568;27.824;2023-07-30T04:44:15;98697.22;;;22.76;100.00
9672;BME280;4874;43.568;27.824;2023-07-30T04:46:42;98705.78;;;22.91;100.00
9672;BME280;4874;43.568;27.824;2023-07-30T04:49:09;98698.84;;;22.66;100.00
9672;BME280;4874;43.568;27.824;2023-07-30T04:51:35;98703.69;;;22.93;100.00
9672;BME280;4874;43.568;27.824;2023-07-30T04:54:03;98710.16;;;22.92;100.00
9672;BME280;4874;43.568;27.824;2023-07-30T04:56:29;98706.03;;;22.90;100.00
9672;BME280;4874;43.568;27.824;2023-07-30T04:58:56;98710.56;;;22.60;100.00
9672;BME280;4874;43.568;27.824;2023-07-30T05:01:24;98688.78;;;22.55;100.00
9672;BME280;4874;43.568;27.824;2023-07-30T05:03:51;98714.66;;;22.98;100.00
9672;BME280;4874;43.568;27.824;2023-07-30T05:06:17;98691.81;;;22.76;100.00
9672;BME280;4874;43.568;27.824;2023-07-30T05:08:44;98705.94;;;22.78;100.00
9672;BME280;4874;43.568;27.824;2023-07-30T05:11:11;98722.06;;;22.73;100.00
9672;BME280;4874;43.568;27.824;2023-07-30T05:13:38;98699.38;;;22.74;100.00
9672;BME280;4874;43.568;27.824;2023-07-30T05:16:04;98687.38;;;22.82;100.00
9672;BME280;4874;43.568;27.824;2023-07-30T05:18:31;98708.22;;;22.81;100.00
9672;BME280;4874;43.568;27.824;2023-07-30T05:20:58;98721.63;;;23.06;100.00
9672;BME280;4874;43.568;27.824;2023-07-30T05:23:24;98714.59;;;23.16;100.00
9672;BME280;4874;43.568;27.824;2023-07-30T05:25:51;98728.56;;;23.32;100.00
9672;BME280;4874;43.568;27.824;2023-07-30T05:28:18;98714.25;;;23.24;100.00
9672;BME280;4874;43.568;27.824;2023-07-30T05:30:45;98723.28;;;23.37;100.00
9672;BME280;4874;43.568;27.824;2023-07-30T05:33:12;98726.53;;;23.57;100.00
9672;BME280;4874;43.568;27.824;2023-07-30T05:35:38;98723.88;;;23.50;100.00
9672;BME280;4874;43.568;27.824;2023-07-30T05:38:05;98718.09;;;23.47;100.00
9672;BME280;4874;43.568;27.824;2023-07-30T05:40:33;98713.88;;;23.62;100.00
9672;BME280;4874;43.568;27.824;2023-07-30T05:43:01;98725.72;;;23.91;100.00
9672;BME280;4874;43.568;27.824;2023-07-30T05:45:28;98728.56;;;24.19;100.00
9672;BME280;4874;43.568;27.824;2023-07-30T05:47:55;98715.47;;;24.39;100.00
9672;BME280;4874;43.568;27.824;2023-07-30T05:50:22;98731.94;;;24.72;100.00
9672;BME280;4874;43.568;27.824;2023-07-30T05:52:49;98721.69;;;25.02;100.00
9672;BME280;4874;43.568;27.824;2023-07-30T05:55:15;98725.22;;;25.59;100.00
9672;BME280;4874;43.568;27.824;2023-07-30T05:57:42;98709.03;;;26.19;100.00
9672;BME280;4874;43.568;27.824;2023-07-30T06:00:09;98712.88;;;26.61;100.00
9672;BME280;4874;43.568;27.824;2023-07-30T06:02:36;98704.44;;;26.62;100.00
9672;BME280;4874;43.568;27.824;2023-07-30T06:05:03;98717.66;;;26.54;100.00
9672;BME280;4874;43.568;27.824;2023-07-30T06:07:30;98726.34;;;26.29;100.00
9672;BME280;4874;43.568;27.824;2023-07-30T06:09:57;98694.56;;;26.56;100.00
9672;BME280;4874;43.568;27.824;2023-07-30T06:12:24;98717.13;;;26.95;100.00
9672;BME280;4874;43.568;27.824;2023-07-30T06:14:50;98714.34;;;27.38;100.00
9672;BME280;4874;43.568;27.824;2023-07-30T06:17:17;98717.28;;;27.63;100.00
9672;BME280;4874;43.568;27.824;2023-07-30T06:19:44;98716.25;;;27.69;100.00
9672;BME280;4874;43.568;27.824;2023-07-30T06:22:10;98716.13;;;27.86;100.00
9672;BME280;4874;43.568;27.824;2023-07-30T06:24:37;98716.75;;;28.35;100.00
9672;BME280;4874;43.568;27.824;2023-07-30T06:27:04;98706.19;;;28.07;96.65
9672;BME280;4874;43.568;27.824;2023-07-30T06:29:31;98709.59;;;28.24;94.87
9672;BME280;4874;43.568;27.824;2023-07-30T06:31:58;98704.94;;;28.66;92.38
9672;BME280;4874;43.568;27.824;2023-07-30T06:34:25;98696.66;;;28.56;90.67
9672;BME280;4874;43.568;27.824;2023-07-30T06:36:51;98699.50;;;28.71;86.36
9672;BME280;4874;43.568;27.824;2023-07-30T06:39:18;98709.94;;;28.89;84.28
9672;BME280;4874;43.568;27.824;2023-07-30T06:41:45;98714.53;;;28.83;87.60
9672;BME280;4874;43.568;27.824;2023-07-30T06:44:12;98695.25;;;28.48;85.44
9672;BME280;4874;43.568;27.824;2023-07-30T06:46:38;98697.97;;;29.05;86.86
9672;BME280;4874;43.568;27.824;2023-07-30T06:49:05;98711.22;;;28.76;86.93
9672;BME280;4874;43.568;27.824;2023-07-30T06:51:32;98697.84;;;28.75;83.53
9672;BME280;4874;43.568;27.824;2023-07-30T06:53:59;98712.25;;;28.55;83.41
9672;BME280;4874;43.568;27.824;2023-07-30T06:56:25;98710.06;;;29.24;86.51
9672;BME280;4874;43.568;27.824;2023-07-30T06:58:52;98709.25;;;29.29;77.96
9672;BME280;4874;43.568;27.824;2023-07-30T07:01:19;98685.97;;;29.31;76.10
9672;BME280;4874;43.568;27.824;2023-07-30T07:03:46;98695.25;;;29.10;73.38
9672;BME280;4874;43.568;27.824;2023-07-30T07:06:12;98699.66;;;29.26;77.50
9672;BME280;4874;43.568;27.824;2023-07-30T07:08:39;98698.88;;;29.61;78.61
9672;BME280;4874;43.568;27.824;2023-07-30T07:11:06;98683.03;;;29.68;75.02
9672;BME280;4874;43.568;27.824;2023-07-30T07:13:33;98690.97;;;29.69;74.61
9672;BME280;4874;43.568;27.824;2023-07-30T07:15:59;98691.25;;;29.68;74.75
9672;BME280;4874;43.568;27.824;2023-07-30T07:18:26;98689.34;;;29.68;72.76
9672;BME280;4874;43.568;27.824;2023-07-30T07:20:53;98677.84;;;29.76;76.78
9672;BME280;4874;43.568;27.824;2023-07-30T07:23:20;98673.19;;;29.67;75.60
9672;BME280;4874;43.568;27.824;2023-07-30T07:25:46;98679.41;;;30.13;73.42
9672;BME280;4874;43.568;27.824;2023-07-30T07:28:13;98691.50;;;29.76;75.79
9672;BME280;4874;43.568;27.824;2023-07-30T07:30:40;98692.28;;;30.12;76.39
9672;BME280;4874;43.568;27.824;2023-07-30T07:33:07;98676.47;;;29.74;70.99
9672;BME280;4874;43.568;27.824;2023-07-30T07:35:35;98679.41;;;30.28;71.14
9672;BME280;4874;43.568;27.824;2023-07-30T07:38:02;98658.88;;;30.30;70.55
9672;BME280;4874;43.568;27.824;2023-07-30T07:40:29;98672.38;;;30.75;70.26
9672;BME280;4874;43.568;27.824;2023-07-30T07:42:55;98668.97;;;31.03;72.36
9672;BME280;4874;43.568;27.824;2023-07-30T07:45:22;98669.47;;;31.10;70.68
9672;BME280;4874;43.568;27.824;2023-07-30T07:47:49;98670.91;;;30.98;70.88
9672;BME280;4874;43.568;27.824;2023-07-30T07:50:16;98665.97;;;30.36;71.99
9672;BME280;4874;43.568;27.824;2023-07-30T07:52:43;98667.38;;;30.92;69.05
9672;BME280;4874;43.568;27.824;2023-07-30T07:55:09;98670.50;;;30.71;72.08
9672;BME280;4874;43.568;27.824;2023-07-30T07:57:36;98664.22;;;30.60;70.81
9672;BME280;4874;43.568;27.824;2023-07-30T08:00:05;98647.56;;;30.47;72.91
9672;BME280;4874;43.568;27.824;2023-07-30T08:02:32;98659.88;;;30.54;72.96
9672;BME280;4874;43.568;27.824;2023-07-30T08:04:58;98670.25;;;30.62;73.90
9672;BME280;4874;43.568;27.824;2023-07-30T08:07:25;98658.56;;;30.37;72.29
9672;BME280;4874;43.568;27.824;2023-07-30T08:09:52;98662.25;;;30.71;74.28
9672;BME280;4874;43.568;27.824;2023-07-30T08:12:20;98658.66;;;30.85;76.18
9672;BME280;4874;43.568;27.824;2023-07-30T08:14:47;98642.81;;;29.73;73.67
9672;BME280;4874;43.568;27.824;2023-07-30T08:17:14;98660.41;;;30.56;73.56
9672;BME280;4874;43.568;27.824;2023-07-30T08:19:40;98669.31;;;30.92;73.75
9672;BME280;4874;43.568;27.824;2023-07-30T08:22:07;98653.13;;;30.95;72.94
9672;BME280;4874;43.568;27.824;2023-07-30T08:24:34;98642.13;;;31.00;71.85
9672;BME280;4874;43.568;27.824;2023-07-30T08:27:01;98652.09;;;30.81;69.74
9672;BME280;4874;43.568;27.824;2023-07-30T08:29:27;98655.16;;;30.70;71.30
9672;BME280;4874;43.568;27.824;2023-07-30T08:31:54;98665.38;;;30.54;75.20
9672;BME280;4874;43.568;27.824;2023-07-30T08:34:22;98634.81;;;30.81;72.43
9672;BME280;4874;43.568;27.824;2023-07-30T08:36:49;98668.44;;;31.01;72.92
9672;BME280;4874;43.568;27.824;2023-07-30T08:39:16;98662.13;;;31.01;71.25
9672;BME280;4874;43.568;27.824;2023-07-30T08:41:43;98663.63;;;30.68;70.67
9672;BME280;4874;43.568;27.824;2023-07-30T08:44:10;98659.19;;;31.36;73.41
9672;BME280;4874;43.568;27.824;2023-07-30T08:46:37;98640.25;;;30.91;70.82
9672;BME280;4874;43.568;27.824;2023-07-30T08:49:04;98644.78;;;31.10;72.41
9672;BME280;4874;43.568;27.824;2023-07-30T08:51:31;98633.88;;;31.44;72.72
9672;BME280;4874;43.568;27.824;2023-07-30T08:54:01;98647.38;;;31.31;72.88
9672;BME280;4874;43.568;27.824;2023-07-30T08:56:30;98646.16;;;31.52;73.32
9672;BME280;4874;43.568;27.824;2023-07-30T08:58:58;98648.88;;;31.13;74.37
9672;BME280;4874;43.568;27.824;2023-07-30T09:01:31;98648.06;;;30.59;75.74
9672;BME280;4874;43.568;27.824;2023-07-30T09:04:01;98631.91;;;30.57;76.34
9672;BME280;4874;43.568;27.824;2023-07-30T09:06:28;98639.91;;;30.49;77.03
9672;BME280;4874;43.568;27.824;2023-07-30T09:08:55;98633.72;;;30.87;79.60
9672;BME280;4874;43.568;27.824;2023-07-30T09:11:26;98633.88;;;31.05;80.45
9672;BME280;4874;43.568;27.824;2023-07-30T09:13:56;98616.13;;;31.27;82.80
9672;BME280;4874;43.568;27.824;2023-07-30T09:16:26;98629.94;;;31.17;80.84
9672;BME280;4874;43.568;27.824;2023-07-30T09:18:53;98615.41;;;31.16;82.81
9672;BME280;4874;43.568;27.824;2023-07-30T09:21:34;98598.97;;;31.16;87.52
9672;BME280;4874;43.568;27.824;2023-07-30T09:24:03;98619.50;;;31.57;86.29
9672;BME280;4874;43.568;27.824;2023-07-30T09:26:42;98594.16;;;31.37;85.60
9672;BME280;4874;43.568;27.824;2023-07-30T09:29:10;98625.13;;;30.98;85.58
9672;BME280;4874;43.568;27.824;2023-07-30T09:31:50;98625.66;;;31.00;81.79
9672;BME280;4874;43.568;27.824;2023-07-30T09:34:24;98611.16;;;31.34;84.75
9672;BME280;4874;43.568;27.824;2023-07-30T09:36:55;98622.34;;;30.50;84.90
9672;BME280;4874;43.568;27.824;2023-07-30T09:39:25;98602.38;;;30.98;84.79
9672;BME280;4874;43.568;27.824;2023-07-30T09:42:00;98621.59;;;31.32;83.34
9672;BME280;4874;43.568;27.824;2023-07-30T09:44:27;98618.81;;;30.98;81.95
9672;BME280;4874;43.568;27.824;2023-07-30T09:46:54;98602.78;;;31.15;81.50
9672;BME280;4874;43.568;27.824;2023-07-30T09:49:20;98621.75;;;31.50;81.39
9672;BME280;4874;43.568;27.824;2023-07-30T09:51:50;98614.91;;;31.76;74.62
9672;BME280;4874;43.568;27.824;2023-07-30T09:54:18;98605.03;;;31.47;72.42
9672;BME280;4874;43.568;27.824;2023-07-30T09:56:45;98602.00;;;31.48;75.32
9672;BME280;4874;43.568;27.824;2023-07-30T09:59:11;98614.44;;;31.69;77.04
9672;BME280;4874;43.568;27.824;2023-07-30T10:01:43;98612.16;;;31.48;76.66
9672;BME280;4874;43.568;27.824;2023-07-30T10:04:11;98607.84;;;31.42;73.59
9672;BME280;4874;43.568;27.824;2023-07-30T10:06:42;98593.09;;;31.28;77.33
9672;BME280;4874;43.568;27.824;2023-07-30T10:09:12;98608.69;;;30.98;75.30
9672;BME280;4874;43.568;27.824;2023-07-30T10:11:41;98600.22;;;31.29;73.62
9672;BME280;4874;43.568;27.824;2023-07-30T10:14:09;98603.41;;;31.74;71.48
9672;BME280;4874;43.568;27.824;2023-07-30T10:16:36;98591.53;;;31.17;72.96
9672;BME280;4874;43.568;27.824;2023-07-30T10:19:03;98602.41;;;31.65;73.73
9672;BME280;4874;43.568;27.824;2023-07-30T10:21:32;98598.22;;;31.73;77.55
9672;BME280;4874;43.568;27.824;2023-07-30T10:24:01;98576.34;;;30.47;77.40
9672;BME280;4874;43.568;27.824;2023-07-30T10:26:33;98597.91;;;31.07;77.86
9672;BME280;4874;43.568;27.824;2023-07-30T10:29:19;98593.47;;;31.78;77.26
9672;BME280;4874;43.568;27.824;2023-07-30T10:31:56;98582.38;;;31.93;72.71
9672;BME280;4874;43.568;27.824;2023-07-30T10:34:27;98585.41;;;30.91;74.01
9672;BME280;4874;43.568;27.824;2023-07-30T10:37:09;98586.44;;;31.39;72.17
9672;BME280;4874;43.568;27.824;2023-07-30T10:39:36;98591.00;;;32.05;72.46
9672;BME280;4874;43.568;27.824;2023-07-30T10:42:03;98567.81;;;31.36;71.75
9672;BME280;4874;43.568;27.824;2023-07-30T10:44:34;98565.41;;;32.10;71.88
9672;BME280;4874;43.568;27.824;2023-07-30T10:47:02;98582.31;;;32.22;70.27
9672;BME280;4874;43.568;27.824;2023-07-30T10:49:36;98573.25;;;31.69;69.86
9672;BME280;4874;43.568;27.824;2023-07-30T10:52:03;98570.78;;;31.68;71.02
9672;BME280;4874;43.568;27.824;2023-07-30T10:54:34;98564.47;;;31.96;69.31
9672;BME280;4874;43.568;27.824;2023-07-30T10:57:02;98579.22;;;32.05;69.04
9672;BME280;4874;43.568;27.824;2023-07-30T10:59:39;98563.22;;;31.26;70.06
9672;BME280;4874;43.568;27.824;2023-07-30T11:02:06;98568.28;;;31.71;74.19
9672;BME280;4874;43.568;27.824;2023-07-30T11:04:35;98562.94;;;31.56;76.81
9672;BME280;4874;43.568;27.824;2023-07-30T11:07:02;98556.25;;;31.67;73.92
9672;BME280;4874;43.568;27.824;2023-07-30T11:09:30;98550.34;;;31.55;76.21
9672;BME280;4874;43.568;27.824;2023-07-30T11:11:57;98559.09;;;31.24;75.97
9672;BME280;4874;43.568;27.824;2023-07-30T11:14:25;98551.03;;;31.94;76.42
9672;BME280;4874;43.568;27.824;2023-07-30T11:16:57;98562.44;;;30.33;79.91
9672;BME280;4874;43.568;27.824;2023-07-30T11:19:27;98576.44;;;30.85;81.93
9672;BME280;4874;43.568;27.824;2023-07-30T11:21:56;98573.34;;;31.26;80.94
9672;BME280;4874;43.568;27.824;2023-07-30T11:24:36;98530.38;;;31.50;77.61
9672;BME280;4874;43.568;27.824;2023-07-30T11:27:04;98542.72;;;31.76;74.22
9672;BME280;4874;43.568;27.824;2023-07-30T11:29:30;98562.22;;;31.74;77.76
9672;BME280;4874;43.568;27.824;2023-07-30T11:31:58;98561.03;;;31.57;79.11
9672;BME280;4874;43.568;27.824;2023-07-30T11:34:26;98527.19;;;31.38;74.42
9672;BME280;4874;43.568;27.824;2023-07-30T11:36:54;98562.31;;;31.93;73.85
9672;BME280;4874;43.568;27.824;2023-07-30T11:39:23;98548.56;;;31.69;73.87
9672;BME280;4874;43.568;27.824;2023-07-30T11:41:50;98548.88;;;31.91;75.41
9672;BME280;4874;43.568;27.824;2023-07-30T11:44:35;98548.59;;;31.93;73.03
9672;BME280;4874;43.568;27.824;2023-07-30T11:47:05;98524.03;;;31.78;72.24
9672;BME280;4874;43.568;27.824;2023-07-30T11:49:32;98531.84;;;31.66;74.57
9672;BME280;4874;43.568;27.824;2023-07-30T11:54:32;98536.88;;;31.59;76.07
9672;BME280;4874;43.568;27.824;2023-07-30T11:56:59;98529.56;;;30.82;77.61
9672;BME280;4874;43.568;27.824;2023-07-30T11:59:26;98519.66;;;30.42;78.52
9672;BME280;4874;43.568;27.824;2023-07-30T12:01:53;98496.22;;;30.65;78.36
9672;BME280;4874;43.568;27.824;2023-07-30T12:04:20;98523.19;;;30.43;82.30
9672;BME280;4874;43.568;27.824;2023-07-30T12:06:49;98522.75;;;30.21;84.45
9672;BME280;4874;43.568;27.824;2023-07-30T12:09:18;98506.75;;;30.43;83.70
9672;BME280;4874;43.568;27.824;2023-07-30T12:11:54;98520.84;;;30.70;81.03
9672;BME280;4874;43.568;27.824;2023-07-30T12:14:24;98515.31;;;30.31;82.94
9672;BME280;4874;43.568;27.824;2023-07-30T12:16:58;98518.31;;;30.78;86.17
9672;BME280;4874;43.568;27.824;2023-07-30T12:19:25;98512.25;;;30.86;84.92
9672;BME280;4874;43.568;27.824;2023-07-30T12:21:52;98505.91;;;31.25;85.47
9672;BME280;4874;43.568;27.824;2023-07-30T12:24:19;98495.13;;;30.99;87.95
9672;BME280;4874;43.568;27.824;2023-07-30T12:26:45;98500.06;;;30.64;91.42
9672;BME280;4874;43.568;27.824;2023-07-30T12:29:12;98497.66;;;30.52;91.79
9672;BME280;4874;43.568;27.824;2023-07-30T12:31:39;98479.94;;;30.40;92.42
9672;BME280;4874;43.568;27.824;2023-07-30T12:34:06;98490.88;;;30.40;94.02
9672;BME280;4874;43.568;27.824;2023-07-30T12:36:33;98459.66;;;29.87;93.68
9672;BME280;4874;43.568;27.824;2023-07-30T12:39:00;98491.81;;;30.64;90.86
9672;BME280;4874;43.568;27.824;2023-07-30T12:41:26;98499.41;;;30.38;92.61
9672;BME280;4874;43.568;27.824;2023-07-30T12:43:54;98499.31;;;29.99;94.55
9672;BME280;4874;43.568;27.824;2023-07-30T12:46:23;98493.44;;;30.21;91.90
9672;BME280;4874;43.568;27.824;2023-07-30T12:48:51;98464.56;;;30.44;94.06
9672;BME280;4874;43.568;27.824;2023-07-30T12:51:17;98490.41;;;30.23;93.68
9672;BME280;4874;43.568;27.824;2023-07-30T12:53:44;98491.00;;;30.15;93.91
9672;BME280;4874;43.568;27.824;2023-07-30T12:56:11;98491.69;;;29.86;93.54
9672;BME280;4874;43.568;27.824;2023-07-30T12:58:38;98488.69;;;29.83;95.79
9672;BME280;4874;43.568;27.824;2023-07-30T13:01:06;98481.16;;;30.14;94.13
9672;BME280;4874;43.568;27.824;2023-07-30T13:03:33;98487.75;;;30.08;96.24
9672;BME280;4874;43.568;27.824;2023-07-30T13:06:00;98481.66;;;29.67;93.33
9672;BME280;4874;43.568;27.824;2023-07-30T13:08:27;98481.03;;;29.80;92.65
9672;BME280;4874;43.568;27.824;2023-07-30T13:10:54;98476.38;;;29.85;95.08